sensor_id;sensor_type;location;lat;lon;timestamp;pressure;altitude;pressure_sealevel;temperature;humidity
18504;BME280;9381;54.244;10.074;2023-03-03T00:00:49;101935.84;;;3.30;100.00
18504;BME280;9381;54.244;10.074;2023-03-03T00:05:51;101932.75;;;3.34;100.00
18504;BME280;9381;54.244;10.074;2023-03-03T00:10:51;101941.91;;;3.41;100.00
18504;BME280;9381;54.244;10.074;2023-03-03T00:15:53;101937.38;;;3.42;100.00
18504;BME280;9381;54.244;10.074;2023-03-03T00:20:55;101926.16;;;3.29;100.00
18504;BME280;9381;54.244;10.074;2023-03-03T00:25:57;101928.84;;;3.19;100.00
18504;BME280;9381;54.244;10.074;2023-03-03T00:31:00;101929.50;;;3.12;100.00
18504;BME280;9381;54.244;10.074;2023-03-03T00:41:23;101922.03;;;2.87;100.00
18504;BME280;9381;54.244;10.074;2023-03-03T00:46:24;101916.97;;;2.75;100.00
18504;BME280;9381;54.244;10.074;2023-03-03T00:51:30;101925.13;;;2.73;100.00
18504;BME280;9381;54.244;10.074;2023-03-03T00:56:30;101928.03;;;2.61;100.00
18504;BME280;9381;54.244;10.074;2023-03-03T01:01:31;101924.78;;;2.57;100.00
18504;BME280;9381;54.244;10.074;2023-03-03T01:06:31;101912.13;;;2.59;100.00
18504;BME280;9381;54.244;10.074;2023-03-03T01:11:32;101921.69;;;2.62;100.00
18504;BME280;9381;54.244;10.074;2023-03-03T01:16:32;101918.75;;;2.55;100.00
18504;BME280;9381;54.244;10.074;2023-03-03T01:21:33;101918.56;;;2.47;100.00
18504;BME280;9381;54.244;10.074;2023-03-03T01:26:33;101913.09;;;2.49;100.00
18504;BME280;9381;54.244;10.074;2023-03-03T01:31:33;101909.56;;;2.48;100.00
18504;BME280;9381;54.244;10.074;2023-03-03T01:36:34;101899.72;;;2.39;100.00
18504;BME280;9381;54.244;10.074;2023-03-03T01:41:34;101897.34;;;2.46;100.00
18504;BME280;9381;54.244;10.074;2023-03-03T01:51:50;101889.75;;;2.41;100.00
18504;BME280;9381;54.244;10.074;2023-03-03T01:56:55;101887.88;;;2.32;100.00
18504;BME280;9381;54.244;10.074;2023-03-03T02:01:57;101887.88;;;2.32;100.00
18504;BME280;9381;54.244;10.074;2023-03-03T02:07:00;101886.78;;;2.35;100.00
18504;BME280;9381;54.244;10.074;2023-03-03T02:12:07;101885.94;;;2.34;100.00
18504;BME280;9381;54.244;10.074;2023-03-03T02:17:10;101896.03;;;2.31;100.00
18504;BME280;9381;54.244;10.074;2023-03-03T02:22:13;101897.16;;;2.28;99.96
18504;BME280;9381;54.244;10.074;2023-03-03T02:27:14;101911.47;;;2.27;98.80
18504;BME280;9381;54.244;10.074;2023-03-03T02:32:15;101908.91;;;2.16;98.78
18504;BME280;9381;54.244;10.074;2023-03-03T02:37:16;101914.25;;;2.16;97.98
18504;BME280;9381;54.244;10.074;2023-03-03T02:42:26;101900.72;;;2.08;97.75
18504;BME280;9381;54.244;10.074;2023-03-03T02:47:28;101892.03;;;2.06;100.00
18504;BME280;9381;54.244;10.074;2023-03-03T02:52:29;101885.44;;;2.10;100.00
18504;BME280;9381;54.244;10.074;2023-03-03T02:57:29;101901.16;;;2.13;100.00
18504;BME280;9381;54.244;10.074;2023-03-03T03:02:29;101900.63;;;2.19;100.00
18504;BME280;9381;54.244;10.074;2023-03-03T03:07:30;101875.44;;;2.12;100.00
18504;BME280;9381;54.244;10.074;2023-03-03T03:12:30;101877.06;;;1.94;99.91
18504;BME280;9381;54.244;10.074;2023-03-03T03:17:30;101882.69;;;1.91;99.58
18504;BME280;9381;54.244;10.074;2023-03-03T03:22:31;101882.63;;;1.82;99.43
18504;BME280;9381;54.244;10.074;2023-03-03T03:27:31;101868.19;;;1.84;98.75
18504;BME280;9381;54.244;10.074;2023-03-03T03:32:31;101867.19;;;1.85;98.90
18504;BME280;9381;54.244;10.074;2023-03-03T03:37:32;101873.31;;;1.76;100.00
18504;BME280;9381;54.244;10.074;2023-03-03T03:42:32;101857.91;;;1.80;100.00
18504;BME280;9381;54.244;10.074;2023-03-03T03:47:32;101855.53;;;1.86;100.00
18504;BME280;9381;54.244;10.074;2023-03-03T03:52:32;101850.75;;;1.80;99.92
18504;BME280;9381;54.244;10.074;2023-03-03T03:57:33;101856.34;;;1.77;100.00
18504;BME280;9381;54.244;10.074;2023-03-03T04:02:34;101856.19;;;1.69;99.90
18504;BME280;9381;54.244;10.074;2023-03-03T04:07:34;101857.94;;;1.59;100.00
18504;BME280;9381;54.244;10.074;2023-03-03T04:12:35;101865.81;;;1.61;99.93
18504;BME280;9381;54.244;10.074;2023-03-03T04:17:37;101866.47;;;1.53;100.00
18504;BME280;9381;54.244;10.074;2023-03-03T04:22:38;101868.94;;;1.45;100.00
18504;BME280;9381;54.244;10.074;2023-03-03T04:27:38;101871.28;;;1.39;99.36
18504;BME280;9381;54.244;10.074;2023-03-03T04:32:38;101877.72;;;1.36;98.96
18504;BME280;9381;54.244;10.074;2023-03-03T04:37:39;101883.75;;;1.38;99.21
18504;BME280;9381;54.244;10.074;2023-03-03T04:42:39;101871.41;;;1.37;99.74
18504;BME280;9381;54.244;10.074;2023-03-03T04:47:40;101865.22;;;1.37;98.88
18504;BME280;9381;54.244;10.074;2023-03-03T04:52:40;101858.16;;;1.26;99.54
18504;BME280;9381;54.244;10.074;2023-03-03T04:57:41;101886.00;;;1.33;99.58
18504;BME280;9381;54.244;10.074;2023-03-03T05:02:42;101877.25;;;1.31;99.26
18504;BME280;9381;54.244;10.074;2023-03-03T05:07:42;101888.38;;;1.36;100.00
18504;BME280;9381;54.244;10.074;2023-03-03T05:12:43;101888.78;;;1.52;100.00
18504;BME280;9381;54.244;10.074;2023-03-03T05:17:43;101892.59;;;1.59;100.00
18504;BME280;9381;54.244;10.074;2023-03-03T05:22:43;101891.81;;;1.68;100.00
18504;BME280;9381;54.244;10.074;2023-03-03T05:27:45;101891.47;;;1.82;100.00
18504;BME280;9381;54.244;10.074;2023-03-03T05:32:45;101886.94;;;2.03;100.00
18504;BME280;9381;54.244;10.074;2023-03-03T05:37:46;101879.38;;;2.08;100.00
18504;BME280;9381;54.244;10.074;2023-03-03T05:42:48;101877.41;;;2.10;100.00
18504;BME280;9381;54.244;10.074;2023-03-03T05:47:51;101888.16;;;2.20;100.00
18504;BME280;9381;54.244;10.074;2023-03-03T05:52:52;101887.63;;;2.35;100.00
18504;BME280;9381;54.244;10.074;2023-03-03T05:57:52;101886.81;;;2.44;100.00
18504;BME280;9381;54.244;10.074;2023-03-03T06:02:53;101887.97;;;2.51;100.00
18504;BME280;9381;54.244;10.074;2023-03-03T06:07:53;101880.38;;;2.56;100.00
18504;BME280;9381;54.244;10.074;2023-03-03T06:12:53;101876.44;;;2.51;100.00
18504;BME280;9381;54.244;10.074;2023-03-03T06:17:54;101878.09;;;2.52;100.00
18504;BME280;9381;54.244;10.074;2023-03-03T06:22:54;101874.44;;;2.43;100.00
18504;BME280;9381;54.244;10.074;2023-03-03T06:27:54;101878.97;;;2.52;100.00
18504;BME280;9381;54.244;10.074;2023-03-03T06:32:55;101879.78;;;2.43;100.00
18504;BME280;9381;54.244;10.074;2023-03-03T06:37:56;101896.50;;;2.45;100.00
18504;BME280;9381;54.244;10.074;2023-03-03T06:42:56;101899.13;;;2.26;100.00
18504;BME280;9381;54.244;10.074;2023-03-03T06:47:56;101894.66;;;2.36;100.00
18504;BME280;9381;54.244;10.074;2023-03-03T06:53:14;101900.34;;;2.52;100.00
18504;BME280;9381;54.244;10.074;2023-03-03T06:58:20;101896.69;;;2.23;100.00
18504;BME280;9381;54.244;10.074;2023-03-03T07:03:32;101899.97;;;1.97;100.00
18504;BME280;9381;54.244;10.074;2023-03-03T07:08:33;101903.59;;;2.26;100.00
18504;BME280;9381;54.244;10.074;2023-03-03T07:13:37;101908.72;;;2.38;100.00
18504;BME280;9381;54.244;10.074;2023-03-03T07:18:52;101913.47;;;2.35;100.00
18504;BME280;9381;54.244;10.074;2023-03-03T07:23:53;101909.75;;;2.17;100.00
18504;BME280;9381;54.244;10.074;2023-03-03T07:28:57;101912.72;;;1.93;100.00
18504;BME280;9381;54.244;10.074;2023-03-03T07:33:58;101906.94;;;2.18;100.00
18504;BME280;9381;54.244;10.074;2023-03-03T07:39:13;101911.13;;;2.11;100.00
18504;BME280;9381;54.244;10.074;2023-03-03T07:44:20;101916.25;;;2.24;100.00
18504;BME280;9381;54.244;10.074;2023-03-03T07:49:22;101920.25;;;2.48;100.00
18504;BME280;9381;54.244;10.074;2023-03-03T07:59:25;101904.34;;;2.37;100.00
18504;BME280;9381;54.244;10.074;2023-03-03T08:04:40;101909.91;;;2.64;100.00
18504;BME280;9381;54.244;10.074;2023-03-03T08:09:45;101905.91;;;2.49;100.00
18504;BME280;9381;54.244;10.074;2023-03-03T08:14:46;101917.97;;;2.34;100.00
18504;BME280;9381;54.244;10.074;2023-03-03T08:19:47;101919.97;;;2.42;100.00
18504;BME280;9381;54.244;10.074;2023-03-03T08:24:48;101914.44;;;2.92;100.00
18504;BME280;9381;54.244;10.074;2023-03-03T08:29:48;101933.72;;;3.05;100.00
18504;BME280;9381;54.244;10.074;2023-03-03T08:34:49;101918.56;;;3.15;100.00
18504;BME280;9381;54.244;10.074;2023-03-03T08:39:49;101925.72;;;3.14;100.00
18504;BME280;9381;54.244;10.074;2023-03-03T08:44:49;101926.44;;;3.26;100.00
18504;BME280;9381;54.244;10.074;2023-03-03T08:49:50;101923.59;;;3.27;100.00
18504;BME280;9381;54.244;10.074;2023-03-03T08:54:50;101916.69;;;3.63;100.00
18504;BME280;9381;54.244;10.074;2023-03-03T08:59:50;101919.75;;;3.68;100.00
18504;BME280;9381;54.244;10.074;2023-03-03T09:04:51;101900.66;;;4.09;100.00
18504;BME280;9381;54.244;10.074;2023-03-03T09:09:51;101902.94;;;4.58;100.00
18504;BME280;9381;54.244;10.074;2023-03-03T09:14:51;101907.69;;;4.91;100.00
18504;BME280;9381;54.244;10.074;2023-03-03T09:19:56;101898.63;;;4.92;100.00
18504;BME280;9381;54.244;10.074;2023-03-03T09:24:58;101901.16;;;5.11;100.00
18504;BME280;9381;54.244;10.074;2023-03-03T09:40:55;101898.00;;;6.18;100.00
18504;BME280;9381;54.244;10.074;2023-03-03T09:46:11;101908.56;;;5.52;100.00
18504;BME280;9381;54.244;10.074;2023-03-03T09:56:27;101895.25;;;5.25;100.00
18504;BME280;9381;54.244;10.074;2023-03-03T10:01:37;101894.56;;;5.23;100.00
18504;BME280;9381;54.244;10.074;2023-03-03T10:07:16;101890.66;;;5.35;100.00
18504;BME280;9381;54.244;10.074;2023-03-03T10:17:57;101892.81;;;5.31;100.00
18504;BME280;9381;54.244;10.074;2023-03-03T10:29:08;101889.59;;;5.28;100.00
18504;BME280;9381;54.244;10.074;2023-03-03T10:50:32;101890.16;;;5.57;100.00
18504;BME280;9381;54.244;10.074;2023-03-03T11:01:25;101858.50;;;5.85;100.00
18504;BME280;9381;54.244;10.074;2023-03-03T11:11:52;101852.09;;;6.04;100.00
18504;BME280;9381;54.244;10.074;2023-03-03T11:17:11;101840.16;;;6.06;100.00
18504;BME280;9381;54.244;10.074;2023-03-03T11:33:00;101834.13;;;6.04;100.00
18504;BME280;9381;54.244;10.074;2023-03-03T11:43:36;101817.50;;;6.58;100.00
18504;BME280;9381;54.244;10.074;2023-03-03T12:04:57;101818.44;;;7.15;95.07
18504;BME280;9381;54.244;10.074;2023-03-03T12:10:48;101806.47;;;7.33;93.99
18504;BME280;9381;54.244;10.074;2023-03-03T12:16:03;101794.50;;;7.52;91.98
18504;BME280;9381;54.244;10.074;2023-03-03T12:26:53;101794.00;;;7.48;93.15
18504;BME280;9381;54.244;10.074;2023-03-03T12:32:20;101782.56;;;7.54;93.97
18504;BME280;9381;54.244;10.074;2023-03-03T12:58:41;101756.09;;;8.12;89.31
18504;BME280;9381;54.244;10.074;2023-03-03T13:03:54;101744.75;;;7.86;89.62
18504;BME280;9381;54.244;10.074;2023-03-03T13:14:43;101724.41;;;8.22;86.15
18504;BME280;9381;54.244;10.074;2023-03-03T13:20:15;101714.81;;;8.42;84.42
18504;BME280;9381;54.244;10.074;2023-03-03T13:30:42;101697.56;;;8.73;82.29
18504;BME280;9381;54.244;10.074;2023-03-03T13:41:08;101701.06;;;8.82;81.26
18504;BME280;9381;54.244;10.074;2023-03-03T13:46:48;101688.47;;;8.89;82.10
18504;BME280;9381;54.244;10.074;2023-03-03T13:52:02;101672.72;;;9.29;81.97
18504;BME280;9381;54.244;10.074;2023-03-03T13:57:43;101681.75;;;8.70;81.22
18504;BME280;9381;54.244;10.074;2023-03-03T14:03:42;101672.44;;;8.36;83.84
18504;BME280;9381;54.244;10.074;2023-03-03T14:29:55;101659.13;;;8.35;84.11
18504;BME280;9381;54.244;10.074;2023-03-03T14:34:58;101646.00;;;8.32;84.55
18504;BME280;9381;54.244;10.074;2023-03-03T14:55:32;101634.63;;;7.91;86.54
18504;BME280;9381;54.244;10.074;2023-03-03T15:00:34;101630.16;;;7.76;87.10
18504;BME280;9381;54.244;10.074;2023-03-03T15:05:35;101613.69;;;8.01;86.36
18504;BME280;9381;54.244;10.074;2023-03-03T15:10:36;101619.09;;;8.01;86.12
18504;BME280;9381;54.244;10.074;2023-03-03T15:15:50;101611.09;;;7.85;87.26
18504;BME280;9381;54.244;10.074;2023-03-03T15:21:04;101609.50;;;7.68;86.63
18504;BME280;9381;54.244;10.074;2023-03-03T15:26:18;101605.63;;;7.32;88.05
18504;BME280;9381;54.244;10.074;2023-03-03T15:31:52;101596.44;;;7.57;88.24
18504;BME280;9381;54.244;10.074;2023-03-03T15:42:06;101583.50;;;7.14;90.62
18504;BME280;9381;54.244;10.074;2023-03-03T15:52:55;101570.06;;;7.14;91.12
18504;BME280;9381;54.244;10.074;2023-03-03T16:03:30;101564.41;;;7.01;92.23
18504;BME280;9381;54.244;10.074;2023-03-03T16:09:05;101550.22;;;6.69;93.01
18504;BME280;9381;54.244;10.074;2023-03-03T16:19:58;101548.31;;;6.85;93.89
18504;BME280;9381;54.244;10.074;2023-03-03T16:25:12;101547.97;;;6.88;93.84
18504;BME280;9381;54.244;10.074;2023-03-03T16:30:44;101533.91;;;6.70;94.00
18504;BME280;9381;54.244;10.074;2023-03-03T16:36:05;101543.47;;;6.73;94.63
18504;BME280;9381;54.244;10.074;2023-03-03T16:41:16;101540.66;;;6.58;95.27
18504;BME280;9381;54.244;10.074;2023-03-03T16:46:21;101539.66;;;6.59;95.54
18504;BME280;9381;54.244;10.074;2023-03-03T16:51:30;101550.59;;;6.58;95.27
18504;BME280;9381;54.244;10.074;2023-03-03T16:56:39;101541.69;;;6.49;95.70
18504;BME280;9381;54.244;10.074;2023-03-03T17:01:49;101535.66;;;6.39;96.61
18504;BME280;9381;54.244;10.074;2023-03-03T17:06:54;101538.50;;;6.38;96.87
18504;BME280;9381;54.244;10.074;2023-03-03T17:28:17;101546.75;;;5.96;99.98
18504;BME280;9381;54.244;10.074;2023-03-03T17:38:42;101551.44;;;5.86;100.00
18504;BME280;9381;54.244;10.074;2023-03-03T18:11:07;101532.63;;;5.63;100.00
18504;BME280;9381;54.244;10.074;2023-03-03T18:16:33;101541.38;;;5.88;100.00
18504;BME280;9381;54.244;10.074;2023-03-03T18:21:48;101538.66;;;5.72;100.00
18504;BME280;9381;54.244;10.074;2023-03-03T18:26:52;101528.97;;;5.87;100.00
18504;BME280;9381;54.244;10.074;2023-03-03T18:36:57;101522.88;;;5.69;100.00
18504;BME280;9381;54.244;10.074;2023-03-03T18:47:09;101519.34;;;5.69;100.00
18504;BME280;9381;54.244;10.074;2023-03-03T18:52:16;101529.25;;;5.76;100.00
18504;BME280;9381;54.244;10.074;2023-03-03T18:57:18;101516.19;;;5.73;100.00
18504;BME280;9381;54.244;10.074;2023-03-03T19:12:50;101517.91;;;5.90;100.00
18504;BME280;9381;54.244;10.074;2023-03-03T19:17:55;101507.81;;;5.84;100.00
18504;BME280;9381;54.244;10.074;2023-03-03T19:23:06;101509.84;;;5.82;100.00
18504;BME280;9381;54.244;10.074;2023-03-03T19:33:19;101506.66;;;6.03;100.00
18504;BME280;9381;54.244;10.074;2023-03-03T19:38:35;101503.78;;;5.88;100.00
18504;BME280;9381;54.244;10.074;2023-03-03T19:49:21;101493.03;;;5.88;100.00
18504;BME280;9381;54.244;10.074;2023-03-03T20:00:02;101498.44;;;5.80;100.00
18504;BME280;9381;54.244;10.074;2023-03-03T20:16:03;101498.53;;;5.63;100.00
18504;BME280;9381;54.244;10.074;2023-03-03T20:21:26;101494.84;;;5.64;100.00
18504;BME280;9381;54.244;10.074;2023-03-03T20:26:53;101499.88;;;5.51;100.00
18504;BME280;9381;54.244;10.074;2023-03-03T20:37:30;101483.56;;;5.29;100.00
18504;BME280;9381;54.244;10.074;2023-03-03T21:03:46;101495.22;;;5.04;100.00
18504;BME280;9381;54.244;10.074;2023-03-03T21:08:53;101487.03;;;5.05;100.00
18504;BME280;9381;54.244;10.074;2023-03-03T21:13:53;101482.03;;;5.18;100.00
18504;BME280;9381;54.244;10.074;2023-03-03T21:19:05;101486.28;;;5.37;100.00
18504;BME280;9381;54.244;10.074;2023-03-03T21:24:08;101483.56;;;5.29;100.00
18504;BME280;9381;54.244;10.074;2023-03-03T21:34:34;101482.28;;;5.64;100.00
18504;BME280;9381;54.244;10.074;2023-03-03T21:39:42;101480.59;;;5.56;100.00
18504;BME280;9381;54.244;10.074;2023-03-03T21:44:44;101468.22;;;5.86;100.00
18504;BME280;9381;54.244;10.074;2023-03-03T21:49:50;101472.56;;;6.03;100.00
18504;BME280;9381;54.244;10.074;2023-03-03T21:54:51;101467.50;;;6.24;100.00
18504;BME280;9381;54.244;10.074;2023-03-03T21:59:51;101463.63;;;6.35;100.00
18504;BME280;9381;54.244;10.074;2023-03-03T22:04:52;101460.25;;;6.49;100.00
18504;BME280;9381;54.244;10.074;2023-03-03T22:09:52;101467.09;;;6.51;100.00
18504;BME280;9381;54.244;10.074;2023-03-03T22:14:52;101456.84;;;6.55;100.00
18504;BME280;9381;54.244;10.074;2023-03-03T22:19:53;101455.50;;;6.59;100.00
18504;BME280;9381;54.244;10.074;2023-03-03T22:24:54;101445.16;;;6.78;100.00
18504;BME280;9381;54.244;10.074;2023-03-03T22:29:55;101436.41;;;6.84;100.00
18504;BME280;9381;54.244;10.074;2023-03-03T22:34:55;101432.66;;;6.93;100.00
18504;BME280;9381;54.244;10.074;2023-03-03T22:39:55;101426.22;;;7.02;100.00
18504;BME280;9381;54.244;10.074;2023-03-03T22:44:56;101423.81;;;7.07;100.00
18504;BME280;9381;54.244;10.074;2023-03-03T22:49:58;101421.44;;;7.12;100.00
18504;BME280;9381;54.244;10.074;2023-03-03T22:54:58;101418.72;;;7.20;100.00
18504;BME280;9381;54.244;10.074;2023-03-03T22:59:58;101418.34;;;7.23;100.00
18504;BME280;9381;54.244;10.074;2023-03-03T23:04:59;101399.81;;;7.28;100.00
18504;BME280;9381;54.244;10.074;2023-03-03T23:10:01;101411.19;;;7.38;100.00
18504;BME280;9381;54.244;10.074;2023-03-03T23:15:03;101398.38;;;7.40;99.96
18504;BME280;9381;54.244;10.074;2023-03-03T23:20:06;101400.91;;;7.42;100.00
18504;BME280;9381;54.244;10.074;2023-03-03T23:25:07;101403.13;;;7.38;99.65
18504;BME280;9381;54.244;10.074;2023-03-03T23:30:10;101400.00;;;7.49;99.61
18504;BME280;9381;54.244;10.074;2023-03-03T23:35:11;101407.69;;;7.52;98.72
18504;BME280;9381;54.244;10.074;2023-03-03T23:40:13;101396.59;;;7.55;98.55
18504;BME280;9381;54.244;10.074;2023-03-03T23:45:14;101393.25;;;7.53;98.22
18504;BME280;9381;54.244;10.074;2023-03-03T23:50:14;101398.25;;;7.56;97.76
18504;BME280;9381;54.244;10.074;2023-03-03T23:55:15;101392.50;;;7.59;97.29
